Terminal Aerodrome Forecast
Issued by NWS

Home | Current Version | Previous Version | Text Only | Print | Product List | Glossary Off
Versions: 1 2 3 4 5 6 7 8 9 10 11 12 13 14 15

000
FTUS43 KGRB 010539
TAFAUW
TAF
KAUW 010539Z 0106/0206 VRB03KT 5SM BR SCT015
     FM010900 VRB02KT 2SM BR SCT005 BKN015
      TEMPO 0109/0113 1SM BR BKN005
     FM011400 22006KT P6SM FEW007 BKN015
     FM011800 21010G15KT P6SM SCT200
     FM020400 VRB03KT 4SM BR SCT200=

USA.gov is the U.S. government's official web portal to all federal, state and local government web resources and services.